sensor_id;sensor_type;location;lat;lon;timestamp;P1;durP1;ratioP1;P2;durP2;ratioP2
59074;SDS011;44860;53.020;6.738;2023-08-31T00:02:09;5.00;;;3.15;;
59074;SDS011;44860;53.020;6.738;2023-08-31T00:04:35;8.38;;;3.15;;
59074;SDS011;44860;53.020;6.738;2023-08-31T00:07:00;5.38;;;2.60;;
59074;SDS011;44860;53.020;6.738;2023-08-31T00:09:26;7.30;;;2.90;;
59074;SDS011;44860;53.020;6.738;2023-08-31T00:11:52;4.95;;;2.70;;
59074;SDS011;44860;53.020;6.738;2023-08-31T00:14:18;5.03;;;2.65;;
59074;SDS011;44860;53.020;6.738;2023-08-31T00:16:44;6.05;;;2.78;;
59074;SDS011;44860;53.020;6.738;2023-08-31T00:19:13;5.75;;;2.65;;
59074;SDS011;44860;53.020;6.738;2023-08-31T00:21:39;5.40;;;2.67;;
59074;SDS011;44860;53.020;6.738;2023-08-31T00:24:05;6.88;;;2.70;;
59074;SDS011;44860;53.020;6.738;2023-08-31T00:26:33;5.05;;;2.60;;
59074;SDS011;44860;53.020;6.738;2023-08-31T00:28:58;5.25;;;2.50;;
59074;SDS011;44860;53.020;6.738;2023-08-31T00:31:24;4.72;;;2.65;;
59074;SDS011;44860;53.020;6.738;2023-08-31T00:33:52;5.57;;;2.72;;
59074;SDS011;44860;53.020;6.738;2023-08-31T00:36:18;5.22;;;2.88;;
59074;SDS011;44860;53.020;6.738;2023-08-31T00:38:43;6.13;;;2.78;;
59074;SDS011;44860;53.020;6.738;2023-08-31T00:41:10;6.47;;;3.15;;
59074;SDS011;44860;53.020;6.738;2023-08-31T00:43:36;8.75;;;3.20;;
59074;SDS011;44860;53.020;6.738;2023-08-31T00:46:01;6.32;;;3.40;;
59074;SDS011;44860;53.020;6.738;2023-08-31T00:48:27;3.90;;;2.88;;
59074;SDS011;44860;53.020;6.738;2023-08-31T00:50:53;7.30;;;2.83;;
59074;SDS011;44860;53.020;6.738;2023-08-31T00:53:19;6.47;;;2.90;;
59074;SDS011;44860;53.020;6.738;2023-08-31T00:55:45;8.63;;;3.00;;
59074;SDS011;44860;53.020;6.738;2023-08-31T00:58:11;6.57;;;3.30;;
59074;SDS011;44860;53.020;6.738;2023-08-31T01:00:52;8.18;;;3.38;;
59074;SDS011;44860;53.020;6.738;2023-08-31T01:06:18;6.55;;;2.67;;
59074;SDS011;44860;53.020;6.738;2023-08-31T01:09:07;9.55;;;3.10;;
59074;SDS011;44860;53.020;6.738;2023-08-31T01:12:40;5.80;;;3.22;;
59074;SDS011;44860;53.020;6.738;2023-08-31T01:14:35;4.57;;;2.65;;
59074;SDS011;44860;53.020;6.738;2023-08-31T01:19:45;5.57;;;2.72;;
59074;SDS011;44860;53.020;6.738;2023-08-31T01:22:16;5.57;;;2.80;;
59074;SDS011;44860;53.020;6.738;2023-08-31T01:24:59;5.55;;;2.63;;
59074;SDS011;44860;53.020;6.738;2023-08-31T01:27:29;5.20;;;2.65;;
59074;SDS011;44860;53.020;6.738;2023-08-31T01:29:55;5.78;;;2.58;;
59074;SDS011;44860;53.020;6.738;2023-08-31T01:32:21;4.35;;;2.28;;
59074;SDS011;44860;53.020;6.738;2023-08-31T01:34:47;6.22;;;2.65;;
59074;SDS011;44860;53.020;6.738;2023-08-31T01:37:16;4.15;;;2.30;;
59074;SDS011;44860;53.020;6.738;2023-08-31T01:39:48;4.72;;;2.20;;
59074;SDS011;44860;53.020;6.738;2023-08-31T01:42:20;6.13;;;2.20;;
59074;SDS011;44860;53.020;6.738;2023-08-31T01:44:48;3.60;;;2.10;;
59074;SDS011;44860;53.020;6.738;2023-08-31T01:47:14;3.97;;;2.30;;
59074;SDS011;44860;53.020;6.738;2023-08-31T01:49:42;5.45;;;2.28;;
59074;SDS011;44860;53.020;6.738;2023-08-31T01:52:08;6.57;;;2.65;;
59074;SDS011;44860;53.020;6.738;2023-08-31T01:54:34;5.38;;;2.65;;
59074;SDS011;44860;53.020;6.738;2023-08-31T01:57:02;6.25;;;2.63;;
59074;SDS011;44860;53.020;6.738;2023-08-31T01:59:28;5.75;;;2.67;;
59074;SDS011;44860;53.020;6.738;2023-08-31T02:01:54;5.05;;;2.50;;
59074;SDS011;44860;53.020;6.738;2023-08-31T02:04:20;4.95;;;2.30;;
59074;SDS011;44860;53.020;6.738;2023-08-31T02:06:45;4.95;;;2.42;;
59074;SDS011;44860;53.020;6.738;2023-08-31T02:09:12;8.05;;;2.50;;
59074;SDS011;44860;53.020;6.738;2023-08-31T02:11:38;4.95;;;2.50;;
59074;SDS011;44860;53.020;6.738;2023-08-31T02:14:04;5.78;;;2.38;;
59074;SDS011;44860;53.020;6.738;2023-08-31T02:16:31;4.50;;;2.63;;
59074;SDS011;44860;53.020;6.738;2023-08-31T02:18:57;3.60;;;2.30;;
59074;SDS011;44860;53.020;6.738;2023-08-31T02:21:23;6.47;;;2.40;;
59074;SDS011;44860;53.020;6.738;2023-08-31T02:23:49;4.43;;;2.45;;
59074;SDS011;44860;53.020;6.738;2023-08-31T02:26:15;6.07;;;2.35;;
59074;SDS011;44860;53.020;6.738;2023-08-31T02:28:41;3.97;;;2.10;;
59074;SDS011;44860;53.020;6.738;2023-08-31T02:31:07;4.97;;;2.20;;
59074;SDS011;44860;53.020;6.738;2023-08-31T02:33:32;4.60;;;1.98;;
59074;SDS011;44860;53.020;6.738;2023-08-31T02:35:58;7.18;;;2.20;;
59074;SDS011;44860;53.020;6.738;2023-08-31T02:38:24;4.82;;;2.55;;
59074;SDS011;44860;53.020;6.738;2023-08-31T02:40:49;5.78;;;2.63;;
59074;SDS011;44860;53.020;6.738;2023-08-31T02:43:15;5.18;;;2.38;;
59074;SDS011;44860;53.020;6.738;2023-08-31T02:45:41;5.65;;;2.50;;
59074;SDS011;44860;53.020;6.738;2023-08-31T02:48:07;5.18;;;2.50;;
59074;SDS011;44860;53.020;6.738;2023-08-31T02:50:36;5.07;;;2.50;;
59074;SDS011;44860;53.020;6.738;2023-08-31T02:53:02;4.93;;;2.90;;
59074;SDS011;44860;53.020;6.738;2023-08-31T02:55:28;5.38;;;3.08;;
59074;SDS011;44860;53.020;6.738;2023-08-31T02:57:56;5.60;;;2.90;;
59074;SDS011;44860;53.020;6.738;2023-08-31T03:00:22;6.00;;;3.00;;
59074;SDS011;44860;53.020;6.738;2023-08-31T03:02:48;13.23;;;3.30;;
59074;SDS011;44860;53.020;6.738;2023-08-31T03:05:17;6.35;;;3.22;;
59074;SDS011;44860;53.020;6.738;2023-08-31T03:07:43;6.10;;;3.15;;
59074;SDS011;44860;53.020;6.738;2023-08-31T03:10:09;6.15;;;3.08;;
59074;SDS011;44860;53.020;6.738;2023-08-31T03:12:35;6.80;;;3.47;;
59074;SDS011;44860;53.020;6.738;2023-08-31T03:15:01;8.80;;;4.07;;
59074;SDS011;44860;53.020;6.738;2023-08-31T03:17:27;8.77;;;4.03;;
59074;SDS011;44860;53.020;6.738;2023-08-31T03:19:53;8.38;;;3.80;;
59074;SDS011;44860;53.020;6.738;2023-08-31T03:22:19;6.63;;;3.60;;
59074;SDS011;44860;53.020;6.738;2023-08-31T03:24:44;6.38;;;3.88;;
59074;SDS011;44860;53.020;6.738;2023-08-31T03:27:10;5.72;;;3.80;;
59074;SDS011;44860;53.020;6.738;2023-08-31T03:29:36;7.20;;;3.90;;
59074;SDS011;44860;53.020;6.738;2023-08-31T03:32:01;8.73;;;4.13;;
59074;SDS011;44860;53.020;6.738;2023-08-31T03:34:30;6.57;;;4.00;;
59074;SDS011;44860;53.020;6.738;2023-08-31T03:36:57;8.02;;;4.00;;
59074;SDS011;44860;53.020;6.738;2023-08-31T03:39:24;6.55;;;4.03;;
59074;SDS011;44860;53.020;6.738;2023-08-31T03:41:50;5.28;;;4.22;;
59074;SDS011;44860;53.020;6.738;2023-08-31T03:44:15;5.15;;;4.20;;
59074;SDS011;44860;53.020;6.738;2023-08-31T03:46:42;4.55;;;3.35;;
59074;SDS011;44860;53.020;6.738;2023-08-31T03:49:08;6.70;;;3.97;;
59074;SDS011;44860;53.020;6.738;2023-08-31T03:51:34;6.82;;;4.13;;
59074;SDS011;44860;53.020;6.738;2023-08-31T03:53:59;5.97;;;4.00;;
59074;SDS011;44860;53.020;6.738;2023-08-31T03:56:25;5.95;;;4.20;;
59074;SDS011;44860;53.020;6.738;2023-08-31T03:58:51;6.32;;;4.60;;
59074;SDS011;44860;53.020;6.738;2023-08-31T04:01:17;6.32;;;4.35;;
59074;SDS011;44860;53.020;6.738;2023-08-31T04:03:43;6.60;;;4.78;;
59074;SDS011;44860;53.020;6.738;2023-08-31T04:06:09;7.30;;;4.60;;
59074;SDS011;44860;53.020;6.738;2023-08-31T04:08:35;8.25;;;4.80;;
59074;SDS011;44860;53.020;6.738;2023-08-31T04:11:01;6.13;;;4.43;;
59074;SDS011;44860;53.020;6.738;2023-08-31T04:13:26;7.28;;;5.03;;
59074;SDS011;44860;53.020;6.738;2023-08-31T04:15:52;7.45;;;5.20;;
59074;SDS011;44860;53.020;6.738;2023-08-31T04:18:18;6.30;;;5.13;;
59074;SDS011;44860;53.020;6.738;2023-08-31T04:20:51;8.43;;;5.32;;
59074;SDS011;44860;53.020;6.738;2023-08-31T04:23:21;9.88;;;5.90;;
59074;SDS011;44860;53.020;6.738;2023-08-31T04:25:47;9.02;;;5.90;;
59074;SDS011;44860;53.020;6.738;2023-08-31T04:28:13;8.02;;;5.70;;
59074;SDS011;44860;53.020;6.738;2023-08-31T04:30:39;6.15;;;5.55;;
59074;SDS011;44860;53.020;6.738;2023-08-31T04:33:06;6.43;;;5.80;;
59074;SDS011;44860;53.020;6.738;2023-08-31T04:35:32;7.97;;;5.90;;
59074;SDS011;44860;53.020;6.738;2023-08-31T04:37:58;6.28;;;5.50;;
59074;SDS011;44860;53.020;6.738;2023-08-31T04:40:24;7.85;;;5.75;;
59074;SDS011;44860;53.020;6.738;2023-08-31T04:42:49;6.97;;;6.07;;
59074;SDS011;44860;53.020;6.738;2023-08-31T04:45:15;8.43;;;6.53;;
59074;SDS011;44860;53.020;6.738;2023-08-31T04:47:41;8.23;;;6.05;;
59074;SDS011;44860;53.020;6.738;2023-08-31T04:50:08;9.05;;;6.63;;
59074;SDS011;44860;53.020;6.738;2023-08-31T04:52:34;11.13;;;7.32;;
59074;SDS011;44860;53.020;6.738;2023-08-31T04:55:03;9.65;;;7.18;;
59074;SDS011;44860;53.020;6.738;2023-08-31T04:57:33;10.40;;;7.85;;
59074;SDS011;44860;53.020;6.738;2023-08-31T04:59:59;8.85;;;7.88;;
59074;SDS011;44860;53.020;6.738;2023-08-31T05:02:24;7.60;;;6.80;;
59074;SDS011;44860;53.020;6.738;2023-08-31T05:04:50;11.18;;;7.80;;
59074;SDS011;44860;53.020;6.738;2023-08-31T05:07:16;9.27;;;7.70;;
59074;SDS011;44860;53.020;6.738;2023-08-31T05:09:42;8.52;;;7.20;;
59074;SDS011;44860;53.020;6.738;2023-08-31T05:12:08;9.00;;;7.10;;
59074;SDS011;44860;53.020;6.738;2023-08-31T05:14:33;10.05;;;7.57;;
59074;SDS011;44860;53.020;6.738;2023-08-31T05:17:02;10.60;;;7.13;;
59074;SDS011;44860;53.020;6.738;2023-08-31T05:19:30;10.25;;;7.60;;
59074;SDS011;44860;53.020;6.738;2023-08-31T05:21:56;10.85;;;7.90;;
59074;SDS011;44860;53.020;6.738;2023-08-31T05:24:21;8.10;;;7.28;;
59074;SDS011;44860;53.020;6.738;2023-08-31T05:26:48;9.13;;;7.57;;
59074;SDS011;44860;53.020;6.738;2023-08-31T05:29:14;10.23;;;8.00;;
59074;SDS011;44860;53.020;6.738;2023-08-31T05:31:40;10.20;;;8.20;;
59074;SDS011;44860;53.020;6.738;2023-08-31T05:34:06;13.13;;;8.93;;
59074;SDS011;44860;53.020;6.738;2023-08-31T05:36:31;11.20;;;8.65;;
59074;SDS011;44860;53.020;6.738;2023-08-31T05:38:57;10.95;;;8.55;;
59074;SDS011;44860;53.020;6.738;2023-08-31T05:41:23;9.95;;;8.13;;
59074;SDS011;44860;53.020;6.738;2023-08-31T05:43:50;11.35;;;7.43;;
59074;SDS011;44860;53.020;6.738;2023-08-31T05:46:15;12.55;;;8.63;;
59074;SDS011;44860;53.020;6.738;2023-08-31T05:48:41;11.27;;;8.10;;
59074;SDS011;44860;53.020;6.738;2023-08-31T05:51:07;10.05;;;8.15;;
59074;SDS011;44860;53.020;6.738;2023-08-31T05:53:34;12.20;;;7.97;;
59074;SDS011;44860;53.020;6.738;2023-08-31T05:56:00;10.13;;;7.65;;
59074;SDS011;44860;53.020;6.738;2023-08-31T05:58:32;10.38;;;7.88;;
59074;SDS011;44860;53.020;6.738;2023-08-31T06:00:59;11.98;;;7.95;;
59074;SDS011;44860;53.020;6.738;2023-08-31T06:03:26;10.00;;;7.85;;
59074;SDS011;44860;53.020;6.738;2023-08-31T06:05:52;11.20;;;7.80;;
59074;SDS011;44860;53.020;6.738;2023-08-31T06:08:19;10.07;;;7.45;;
59074;SDS011;44860;53.020;6.738;2023-08-31T06:10:45;11.75;;;7.63;;
59074;SDS011;44860;53.020;6.738;2023-08-31T06:13:10;9.77;;;7.40;;
59074;SDS011;44860;53.020;6.738;2023-08-31T06:15:36;10.35;;;7.13;;
59074;SDS011;44860;53.020;6.738;2023-08-31T06:18:02;9.32;;;7.10;;
59074;SDS011;44860;53.020;6.738;2023-08-31T06:20:27;11.70;;;7.13;;
59074;SDS011;44860;53.020;6.738;2023-08-31T06:22:53;10.95;;;6.97;;
59074;SDS011;44860;53.020;6.738;2023-08-31T06:25:19;11.88;;;7.07;;
59074;SDS011;44860;53.020;6.738;2023-08-31T06:27:46;11.32;;;7.07;;
59074;SDS011;44860;53.020;6.738;2023-08-31T06:30:12;9.82;;;6.85;;
59074;SDS011;44860;53.020;6.738;2023-08-31T06:32:44;11.30;;;6.45;;
59074;SDS011;44860;53.020;6.738;2023-08-31T06:35:13;10.75;;;6.25;;
59074;SDS011;44860;53.020;6.738;2023-08-31T06:37:42;10.20;;;5.60;;
59074;SDS011;44860;53.020;6.738;2023-08-31T06:40:08;11.10;;;5.80;;
59074;SDS011;44860;53.020;6.738;2023-08-31T06:42:38;9.95;;;5.53;;
59074;SDS011;44860;53.020;6.738;2023-08-31T06:45:05;9.70;;;5.38;;
59074;SDS011;44860;53.020;6.738;2023-08-31T06:47:32;9.02;;;5.30;;
59074;SDS011;44860;53.020;6.738;2023-08-31T06:49:58;10.30;;;5.30;;
59074;SDS011;44860;53.020;6.738;2023-08-31T06:52:25;9.50;;;5.20;;
59074;SDS011;44860;53.020;6.738;2023-08-31T06:54:52;7.88;;;4.57;;
59074;SDS011;44860;53.020;6.738;2023-08-31T06:57:23;11.07;;;4.72;;
59074;SDS011;44860;53.020;6.738;2023-08-31T06:59:49;7.15;;;3.78;;
59074;SDS011;44860;53.020;6.738;2023-08-31T07:02:15;9.73;;;3.72;;
59074;SDS011;44860;53.020;6.738;2023-08-31T07:04:41;6.90;;;3.40;;
59074;SDS011;44860;53.020;6.738;2023-08-31T07:07:07;9.98;;;3.78;;
59074;SDS011;44860;53.020;6.738;2023-08-31T07:09:34;6.70;;;3.22;;
59074;SDS011;44860;53.020;6.738;2023-08-31T07:12:00;5.75;;;3.17;;
59074;SDS011;44860;53.020;6.738;2023-08-31T07:14:27;6.05;;;2.97;;
59074;SDS011;44860;53.020;6.738;2023-08-31T07:16:53;8.45;;;3.10;;
59074;SDS011;44860;53.020;6.738;2023-08-31T07:19:18;5.97;;;2.78;;
59074;SDS011;44860;53.020;6.738;2023-08-31T07:21:44;6.63;;;2.72;;
59074;SDS011;44860;53.020;6.738;2023-08-31T07:24:12;8.02;;;3.30;;
59074;SDS011;44860;53.020;6.738;2023-08-31T07:26:38;8.20;;;2.63;;
59074;SDS011;44860;53.020;6.738;2023-08-31T07:29:04;8.35;;;2.42;;
59074;SDS011;44860;53.020;6.738;2023-08-31T07:31:29;6.28;;;2.38;;
59074;SDS011;44860;53.020;6.738;2023-08-31T07:33:56;6.85;;;1.95;;
59074;SDS011;44860;53.020;6.738;2023-08-31T07:36:22;5.88;;;2.00;;
59074;SDS011;44860;53.020;6.738;2023-08-31T07:38:48;4.93;;;1.90;;
59074;SDS011;44860;53.020;6.738;2023-08-31T07:41:13;5.20;;;1.80;;
59074;SDS011;44860;53.020;6.738;2023-08-31T07:43:39;5.00;;;1.77;;
59074;SDS011;44860;53.020;6.738;2023-08-31T07:46:04;4.47;;;1.45;;
59074;SDS011;44860;53.020;6.738;2023-08-31T07:48:30;5.22;;;1.83;;
59074;SDS011;44860;53.020;6.738;2023-08-31T07:50:56;8.70;;;1.90;;
59074;SDS011;44860;53.020;6.738;2023-08-31T07:53:21;4.97;;;1.50;;
59074;SDS011;44860;53.020;6.738;2023-08-31T07:55:54;5.80;;;1.40;;
59074;SDS011;44860;53.020;6.738;2023-08-31T07:58:21;8.05;;;1.70;;
59074;SDS011;44860;53.020;6.738;2023-08-31T08:00:48;6.40;;;1.30;;
59074;SDS011;44860;53.020;6.738;2023-08-31T08:03:17;5.75;;;1.30;;
59074;SDS011;44860;53.020;6.738;2023-08-31T08:05:42;4.28;;;1.60;;
59074;SDS011;44860;53.020;6.738;2023-08-31T08:08:08;5.50;;;1.38;;
59074;SDS011;44860;53.020;6.738;2023-08-31T08:10:35;5.75;;;1.25;;
59074;SDS011;44860;53.020;6.738;2023-08-31T08:13:00;5.20;;;1.30;;
59074;SDS011;44860;53.020;6.738;2023-08-31T08:15:26;8.27;;;1.58;;
59074;SDS011;44860;53.020;6.738;2023-08-31T08:17:52;5.70;;;1.30;;
59074;SDS011;44860;53.020;6.738;2023-08-31T08:20:19;7.68;;;1.40;;
59074;SDS011;44860;53.020;6.738;2023-08-31T08:22:44;5.72;;;1.20;;
59074;SDS011;44860;53.020;6.738;2023-08-31T08:25:10;3.50;;;1.10;;
59074;SDS011;44860;53.020;6.738;2023-08-31T08:27:36;4.28;;;1.30;;
59074;SDS011;44860;53.020;6.738;2023-08-31T08:30:02;4.88;;;1.20;;
59074;SDS011;44860;53.020;6.738;2023-08-31T08:32:28;4.45;;;1.67;;
59074;SDS011;44860;53.020;6.738;2023-08-31T08:34:54;3.95;;;1.30;;
59074;SDS011;44860;53.020;6.738;2023-08-31T08:37:20;3.13;;;1.40;;
59074;SDS011;44860;53.020;6.738;2023-08-31T08:39:49;3.30;;;1.30;;
59074;SDS011;44860;53.020;6.738;2023-08-31T08:42:15;5.32;;;1.80;;
59074;SDS011;44860;53.020;6.738;2023-08-31T08:44:42;5.93;;;1.50;;
59074;SDS011;44860;53.020;6.738;2023-08-31T08:47:09;4.95;;;1.40;;
59074;SDS011;44860;53.020;6.738;2023-08-31T08:49:36;4.88;;;1.80;;
59074;SDS011;44860;53.020;6.738;2023-08-31T08:52:02;5.03;;;1.40;;
59074;SDS011;44860;53.020;6.738;2023-08-31T08:54:29;5.38;;;1.33;;
59074;SDS011;44860;53.020;6.738;2023-08-31T08:56:55;7.25;;;1.45;;
59074;SDS011;44860;53.020;6.738;2023-08-31T08:59:21;6.30;;;1.42;;
59074;SDS011;44860;53.020;6.738;2023-08-31T09:01:48;4.57;;;1.40;;
59074;SDS011;44860;53.020;6.738;2023-08-31T09:04:14;2.97;;;0.90;;
59074;SDS011;44860;53.020;6.738;2023-08-31T09:06:40;3.97;;;0.90;;
59074;SDS011;44860;53.020;6.738;2023-08-31T09:09:07;5.45;;;1.13;;
59074;SDS011;44860;53.020;6.738;2023-08-31T09:11:34;5.32;;;1.15;;
59074;SDS011;44860;53.020;6.738;2023-08-31T09:14:13;3.15;;;0.93;;
59074;SDS011;44860;53.020;6.738;2023-08-31T09:16:49;3.20;;;1.08;;
59074;SDS011;44860;53.020;6.738;2023-08-31T09:19:23;4.20;;;1.13;;
59074;SDS011;44860;53.020;6.738;2023-08-31T09:21:52;1.20;;;0.73;;
59074;SDS011;44860;53.020;6.738;2023-08-31T09:24:21;4.85;;;1.08;;
59074;SDS011;44860;53.020;6.738;2023-08-31T09:26:57;4.28;;;0.80;;
59074;SDS011;44860;53.020;6.738;2023-08-31T09:29:23;2.50;;;0.70;;
59074;SDS011;44860;53.020;6.738;2023-08-31T09:31:50;5.13;;;0.82;;
59074;SDS011;44860;53.020;6.738;2023-08-31T09:34:16;2.10;;;0.90;;
59074;SDS011;44860;53.020;6.738;2023-08-31T09:36:43;6.35;;;1.33;;
59074;SDS011;44860;53.020;6.738;2023-08-31T09:39:09;3.97;;;1.10;;
59074;SDS011;44860;53.020;6.738;2023-08-31T09:41:57;7.45;;;1.60;;
59074;SDS011;44860;53.020;6.738;2023-08-31T09:44:24;3.88;;;0.98;;
59074;SDS011;44860;53.020;6.738;2023-08-31T09:46:50;3.25;;;1.00;;
59074;SDS011;44860;53.020;6.738;2023-08-31T09:49:17;6.78;;;1.00;;
59074;SDS011;44860;53.020;6.738;2023-08-31T09:51:46;3.67;;;0.70;;
59074;SDS011;44860;53.020;6.738;2023-08-31T09:54:14;1.33;;;0.73;;
59074;SDS011;44860;53.020;6.738;2023-08-31T09:56:51;2.92;;;0.60;;
59074;SDS011;44860;53.020;6.738;2023-08-31T09:59:21;2.70;;;0.70;;
59074;SDS011;44860;53.020;6.738;2023-08-31T10:01:47;3.00;;;0.80;;
59074;SDS011;44860;53.020;6.738;2023-08-31T10:04:13;1.70;;;0.65;;
59074;SDS011;44860;53.020;6.738;2023-08-31T10:06:40;2.85;;;1.00;;
59074;SDS011;44860;53.020;6.738;2023-08-31T10:09:06;2.17;;;1.05;;
59074;SDS011;44860;53.020;6.738;2023-08-31T10:11:34;4.53;;;0.70;;
59074;SDS011;44860;53.020;6.738;2023-08-31T10:14:02;2.10;;;0.70;;
59074;SDS011;44860;53.020;6.738;2023-08-31T10:16:29;3.53;;;1.10;;
59074;SDS011;44860;53.020;6.738;2023-08-31T10:18:55;4.07;;;0.90;;
59074;SDS011;44860;53.020;6.738;2023-08-31T10:21:22;2.90;;;0.90;;
59074;SDS011;44860;53.020;6.738;2023-08-31T10:23:48;4.18;;;1.15;;
59074;SDS011;44860;53.020;6.738;2023-08-31T10:26:28;2.30;;;1.10;;
59074;SDS011;44860;53.020;6.738;2023-08-31T10:28:55;3.15;;;1.00;;
59074;SDS011;44860;53.020;6.738;2023-08-31T10:31:22;4.03;;;0.90;;
59074;SDS011;44860;53.020;6.738;2023-08-31T10:33:55;4.15;;;1.05;;
59074;SDS011;44860;53.020;6.738;2023-08-31T10:36:22;4.65;;;1.00;;
59074;SDS011;44860;53.020;6.738;2023-08-31T10:41:42;3.60;;;1.10;;
59074;SDS011;44860;53.020;6.738;2023-08-31T10:44:26;4.97;;;0.90;;
59074;SDS011;44860;53.020;6.738;2023-08-31T10:46:55;2.67;;;1.00;;
59074;SDS011;44860;53.020;6.738;2023-08-31T10:49:24;3.00;;;1.15;;
59074;SDS011;44860;53.020;6.738;2023-08-31T10:51:54;1.73;;;0.90;;
59074;SDS011;44860;53.020;6.738;2023-08-31T10:54:26;1.88;;;0.90;;
59074;SDS011;44860;53.020;6.738;2023-08-31T10:59:44;1.67;;;0.77;;
59074;SDS011;44860;53.020;6.738;2023-08-31T11:02:36;1.40;;;0.80;;
59074;SDS011;44860;53.020;6.738;2023-08-31T11:05:09;1.40;;;0.77;;
59074;SDS011;44860;53.020;6.738;2023-08-31T11:07:37;2.45;;;0.80;;
59074;SDS011;44860;53.020;6.738;2023-08-31T11:10:18;4.22;;;0.93;;
59074;SDS011;44860;53.020;6.738;2023-08-31T11:12:52;2.30;;;0.80;;
59074;SDS011;44860;53.020;6.738;2023-08-31T11:15:19;1.75;;;1.00;;
59074;SDS011;44860;53.020;6.738;2023-08-31T11:17:46;3.80;;;1.00;;
59074;SDS011;44860;53.020;6.738;2023-08-31T11:20:15;2.58;;;0.77;;
59074;SDS011;44860;53.020;6.738;2023-08-31T11:22:43;1.33;;;0.68;;
59074;SDS011;44860;53.020;6.738;2023-08-31T11:25:11;4.28;;;1.05;;
59074;SDS011;44860;53.020;6.738;2023-08-31T11:27:38;3.70;;;0.98;;
59074;SDS011;44860;53.020;6.738;2023-08-31T11:30:10;3.20;;;0.88;;
59074;SDS011;44860;53.020;6.738;2023-08-31T11:32:50;3.05;;;0.70;;
59074;SDS011;44860;53.020;6.738;2023-08-31T11:35:17;3.40;;;0.90;;
59074;SDS011;44860;53.020;6.738;2023-08-31T11:37:44;3.15;;;0.90;;
59074;SDS011;44860;53.020;6.738;2023-08-31T11:40:11;1.70;;;0.90;;
59074;SDS011;44860;53.020;6.738;2023-08-31T11:42:39;4.30;;;1.10;;
59074;SDS011;44860;53.020;6.738;2023-08-31T11:45:08;3.35;;;0.90;;
59074;SDS011;44860;53.020;6.738;2023-08-31T11:47:35;3.40;;;0.95;;
59074;SDS011;44860;53.020;6.738;2023-08-31T11:50:02;2.67;;;0.82;;
59074;SDS011;44860;53.020;6.738;2023-08-31T11:52:30;3.28;;;0.88;;
59074;SDS011;44860;53.020;6.738;2023-08-31T11:54:56;2.97;;;1.05;;
59074;SDS011;44860;53.020;6.738;2023-08-31T11:57:25;2.47;;;0.90;;
59074;SDS011;44860;53.020;6.738;2023-08-31T11:59:52;0.95;;;0.80;;
59074;SDS011;44860;53.020;6.738;2023-08-31T12:02:19;2.42;;;0.88;;
59074;SDS011;44860;53.020;6.738;2023-08-31T12:04:46;1.52;;;0.60;;
59074;SDS011;44860;53.020;6.738;2023-08-31T12:07:15;2.42;;;0.60;;
59074;SDS011;44860;53.020;6.738;2023-08-31T12:09:42;2.15;;;0.70;;
59074;SDS011;44860;53.020;6.738;2023-08-31T12:12:15;2.03;;;0.77;;
59074;SDS011;44860;53.020;6.738;2023-08-31T12:14:45;3.88;;;0.85;;
59074;SDS011;44860;53.020;6.738;2023-08-31T12:17:10;1.95;;;0.70;;
59074;SDS011;44860;53.020;6.738;2023-08-31T12:19:36;2.80;;;0.80;;
59074;SDS011;44860;53.020;6.738;2023-08-31T12:22:04;2.15;;;0.80;;
59074;SDS011;44860;53.020;6.738;2023-08-31T12:24:39;2.17;;;0.88;;
59074;SDS011;44860;53.020;6.738;2023-08-31T12:27:06;2.67;;;1.00;;
59074;SDS011;44860;53.020;6.738;2023-08-31T12:29:35;2.05;;;0.82;;
59074;SDS011;44860;53.020;6.738;2023-08-31T12:32:01;2.22;;;0.80;;
59074;SDS011;44860;53.020;6.738;2023-08-31T12:34:27;2.15;;;0.90;;
59074;SDS011;44860;53.020;6.738;2023-08-31T12:36:53;4.25;;;0.90;;
59074;SDS011;44860;53.020;6.738;2023-08-31T12:39:19;4.07;;;0.90;;
59074;SDS011;44860;53.020;6.738;2023-08-31T12:41:45;1.88;;;0.98;;
59074;SDS011;44860;53.020;6.738;2023-08-31T12:44:10;3.15;;;1.17;;
59074;SDS011;44860;53.020;6.738;2023-08-31T12:46:36;5.20;;;1.65;;
59074;SDS011;44860;53.020;6.738;2023-08-31T12:49:02;2.67;;;1.00;;
59074;SDS011;44860;53.020;6.738;2023-08-31T12:51:29;5.45;;;1.17;;
59074;SDS011;44860;53.020;6.738;2023-08-31T12:53:55;3.55;;;1.15;;
59074;SDS011;44860;53.020;6.738;2023-08-31T12:56:22;2.45;;;0.93;;
59074;SDS011;44860;53.020;6.738;2023-08-31T12:58:57;3.63;;;1.00;;
59074;SDS011;44860;53.020;6.738;2023-08-31T13:01:22;2.80;;;1.10;;
59074;SDS011;44860;53.020;6.738;2023-08-31T13:03:48;1.02;;;0.90;;
59074;SDS011;44860;53.020;6.738;2023-08-31T13:06:14;3.95;;;1.23;;
59074;SDS011;44860;53.020;6.738;2023-08-31T13:08:41;2.15;;;1.10;;
59074;SDS011;44860;53.020;6.738;2023-08-31T13:11:08;4.78;;;1.00;;
59074;SDS011;44860;53.020;6.738;2023-08-31T13:13:34;2.53;;;0.88;;
59074;SDS011;44860;53.020;6.738;2023-08-31T13:16:00;2.55;;;0.90;;
59074;SDS011;44860;53.020;6.738;2023-08-31T13:18:27;4.88;;;1.23;;
59074;SDS011;44860;53.020;6.738;2023-08-31T13:20:53;3.58;;;1.10;;
59074;SDS011;44860;53.020;6.738;2023-08-31T13:23:23;4.30;;;1.20;;
59074;SDS011;44860;53.020;6.738;2023-08-31T13:25:49;4.40;;;1.15;;
59074;SDS011;44860;53.020;6.738;2023-08-31T13:28:18;3.03;;;1.10;;
59074;SDS011;44860;53.020;6.738;2023-08-31T13:30:44;3.55;;;1.20;;
59074;SDS011;44860;53.020;6.738;2023-08-31T13:33:10;5.28;;;1.30;;
59074;SDS011;44860;53.020;6.738;2023-08-31T13:35:35;6.68;;;1.55;;
59074;SDS011;44860;53.020;6.738;2023-08-31T13:38:02;3.88;;;1.05;;
59074;SDS011;44860;53.020;6.738;2023-08-31T13:40:28;4.63;;;1.35;;
59074;SDS011;44860;53.020;6.738;2023-08-31T13:42:57;4.63;;;1.30;;
59074;SDS011;44860;53.020;6.738;2023-08-31T13:45:28;2.63;;;1.00;;
59074;SDS011;44860;53.020;6.738;2023-08-31T13:47:55;4.47;;;1.63;;
59074;SDS011;44860;53.020;6.738;2023-08-31T13:50:21;4.35;;;1.30;;
59074;SDS011;44860;53.020;6.738;2023-08-31T13:52:47;3.20;;;1.08;;
59074;SDS011;44860;53.020;6.738;2023-08-31T13:55:13;4.72;;;1.35;;
59074;SDS011;44860;53.020;6.738;2023-08-31T13:57:41;2.85;;;1.20;;
59074;SDS011;44860;53.020;6.738;2023-08-31T14:00:07;4.75;;;1.15;;
59074;SDS011;44860;53.020;6.738;2023-08-31T14:02:35;2.85;;;1.00;;
59074;SDS011;44860;53.020;6.738;2023-08-31T14:05:01;4.82;;;1.25;;
59074;SDS011;44860;53.020;6.738;2023-08-31T14:07:28;4.40;;;1.70;;
59074;SDS011;44860;53.020;6.738;2023-08-31T14:09:54;2.40;;;1.10;;
59074;SDS011;44860;53.020;6.738;2023-08-31T14:12:20;2.40;;;1.00;;
59074;SDS011;44860;53.020;6.738;2023-08-31T14:14:46;5.22;;;1.45;;
59074;SDS011;44860;53.020;6.738;2023-08-31T14:17:12;3.58;;;1.25;;
59074;SDS011;44860;53.020;6.738;2023-08-31T14:19:38;6.03;;;1.40;;
59074;SDS011;44860;53.020;6.738;2023-08-31T14:22:04;5.03;;;1.40;;
59074;SDS011;44860;53.020;6.738;2023-08-31T14:24:30;3.72;;;1.48;;
59074;SDS011;44860;53.020;6.738;2023-08-31T14:26:55;4.50;;;1.42;;
59074;SDS011;44860;53.020;6.738;2023-08-31T14:29:22;4.63;;;1.38;;
59074;SDS011;44860;53.020;6.738;2023-08-31T14:31:48;6.68;;;1.35;;
59074;SDS011;44860;53.020;6.738;2023-08-31T14:34:14;4.70;;;1.35;;
59074;SDS011;44860;53.020;6.738;2023-08-31T14:36:40;6.22;;;1.40;;
59074;SDS011;44860;53.020;6.738;2023-08-31T14:39:06;3.58;;;1.40;;
59074;SDS011;44860;53.020;6.738;2023-08-31T14:41:31;4.25;;;1.35;;
59074;SDS011;44860;53.020;6.738;2023-08-31T14:43:57;5.22;;;1.40;;
59074;SDS011;44860;53.020;6.738;2023-08-31T14:46:22;2.60;;;1.10;;
59074;SDS011;44860;53.020;6.738;2023-08-31T14:48:49;3.50;;;1.00;;
59074;SDS011;44860;53.020;6.738;2023-08-31T14:51:15;3.30;;;1.15;;
59074;SDS011;44860;53.020;6.738;2023-08-31T14:53:41;3.00;;;1.00;;
59074;SDS011;44860;53.020;6.738;2023-08-31T14:56:07;5.80;;;1.17;;
59074;SDS011;44860;53.020;6.738;2023-08-31T14:58:33;2.72;;;1.05;;